ENTC/TOS METAR and TAF weather

Enter ICAO airport designator
Station Type Date Time Source
ENTC METAR 2019/10/16 19:20 UTC NOAA

ENTC 161920Z VRB02KT CAVOK M03/M03 Q1018 NOSIG RMK WIND 2600FT 19005KT


Station Type Date Time Source
ENTC Decoded METAR 2019/10/16 19:20 UTC NOAA

Tromso / Langnes, Norway (ENTC) 69-41N 018-55E 10M
Oct 16, 2019 - 03:20 PM EDT / 2019.10.16 1920 UTC
Wind: Variable at 2 MPH (2 KT):0
Visibility: greater than 7 mile(s):0
Temperature: 26 F (-3 C)
Dew Point: 26 F (-3 C)
Relative Humidity: 100%
Pressure (altimeter): 30.06 in. Hg (1018 hPa)
ob: ENTC 161920Z VRB02KT CAVOK M03/M03 Q1018 NOSIG RMK WIND 2600FT 19005KT
cycle: 19

Station Type Date Time Source
ENTC TAF 2019/10/16 18:57 UTC NOAA

TAF ENTC 161700Z 1618/1718 VRB05KT 9999 FEW001

Example: see airport list